createdAt,value
2018-05-21T00:01:13.371Z,44.36
2018-05-21T00:03:46.945Z,44.49
2018-05-21T00:06:20.640Z,43.90
2018-05-21T00:08:54.241Z,45.21
2018-05-21T00:11:27.915Z,45.22
2018-05-21T00:14:01.535Z,44.75
2018-05-21T00:16:35.203Z,45.42
2018-05-21T00:19:08.831Z,45.18
2018-05-21T00:21:42.440Z,45.88
2018-05-21T00:24:15.968Z,46.38
2018-05-21T00:26:49.551Z,44.69
2018-05-21T00:29:23.124Z,46.24
2018-05-21T00:31:56.704Z,45.06
2018-05-21T00:34:30.428Z,44.87
2018-05-21T00:37:04.104Z,45.95
2018-05-21T00:39:37.584Z,46.20
2018-05-21T00:42:11.284Z,45.94
2018-05-21T00:44:44.796Z,44.53
2018-05-21T00:47:18.593Z,44.93
2018-05-21T00:49:52.088Z,44.33
2018-05-21T00:52:25.682Z,44.08
2018-05-21T00:58:15.027Z,44.09
2018-05-21T01:00:48.551Z,44.19
2018-05-21T01:03:22.394Z,44.10
2018-05-21T01:05:55.903Z,44.85
2018-05-21T01:08:29.567Z,45.45
2018-05-21T01:11:03.222Z,44.72
2018-05-21T01:13:36.739Z,44.92
2018-05-21T01:16:10.780Z,44.29
2018-05-21T01:18:44.452Z,43.95
2018-05-21T01:21:17.939Z,43.63
2018-05-21T01:23:51.793Z,44.78
2018-05-21T01:26:25.283Z,43.24
2018-05-21T01:28:58.824Z,42.68
2018-05-21T01:31:32.552Z,43.97
2018-05-21T01:34:06.287Z,43.56
2018-05-21T01:36:39.851Z,43.64
2018-05-21T01:39:13.427Z,43.75
2018-05-21T01:41:47.016Z,42.79
2018-05-21T01:44:20.788Z,43.30
2018-05-21T01:46:54.385Z,42.31
2018-05-21T01:49:28.012Z,42.95
2018-05-21T01:52:01.613Z,43.32
2018-05-21T01:54:35.304Z,43.72
2018-05-21T01:57:08.966Z,43.45
2018-05-21T01:59:42.563Z,43.90
2018-05-21T02:02:16.340Z,44.64
2018-05-21T02:04:49.979Z,43.48
2018-05-21T02:07:23.605Z,43.30
2018-05-21T02:09:57.132Z,42.62
2018-05-21T02:12:30.790Z,43.21
2018-05-21T02:15:04.378Z,43.21
2018-05-21T02:17:38.100Z,43.64
2018-05-21T02:20:11.764Z,42.58
2018-05-21T02:22:45.402Z,42.83
2018-05-21T02:25:18.968Z,42.92
2018-05-21T02:27:52.516Z,43.59
2018-05-21T02:30:26.252Z,41.97
2018-05-21T02:32:59.772Z,42.35
2018-05-21T02:35:33.400Z,43.62
2018-05-21T02:38:07.116Z,41.78
2018-05-21T02:40:40.876Z,41.69
2018-05-21T02:43:14.663Z,42.16
2018-05-21T02:45:48.223Z,42.14
2018-05-21T02:48:21.992Z,42.39
2018-05-21T02:50:55.650Z,43.56
2018-05-21T02:53:29.435Z,42.23
2018-05-21T02:56:03.091Z,42.80
2018-05-21T02:58:36.812Z,42.33
2018-05-21T03:01:10.633Z,43.03
2018-05-21T03:03:44.144Z,42.68
2018-05-21T03:06:17.700Z,43.33
2018-05-21T03:08:51.231Z,43.11
2018-05-21T03:11:24.777Z,44.07
2018-05-21T03:13:58.396Z,43.40
2018-05-21T03:16:31.952Z,43.37
2018-05-21T03:19:05.732Z,44.00
2018-05-21T03:21:39.355Z,43.57
2018-05-21T03:24:12.848Z,44.29
2018-05-21T03:26:46.460Z,42.94
2018-05-21T03:29:20.032Z,42.83
2018-05-21T03:31:53.564Z,43.11
2018-05-21T03:34:27.172Z,42.78
2018-05-21T03:37:00.696Z,43.78
2018-05-21T03:39:34.346Z,43.29
2018-05-21T03:42:07.892Z,44.56
2018-05-21T03:44:41.722Z,43.17
2018-05-21T03:47:15.289Z,44.23
2018-05-21T03:49:49.061Z,43.44
2018-05-21T03:52:22.808Z,43.96
2018-05-21T03:54:56.525Z,43.44
2018-05-21T03:57:30.104Z,43.62
2018-05-21T04:00:15.759Z,43.50
2018-05-21T04:03:01.377Z,44.15
2018-05-21T04:05:35.084Z,43.71
2018-05-21T04:08:08.903Z,44.35
2018-05-21T04:10:42.448Z,44.03
2018-05-21T04:13:15.948Z,44.19
2018-05-21T04:15:49.480Z,44.21
2018-05-21T04:18:23.148Z,44.92
2018-05-21T04:20:56.812Z,45.01
2018-05-21T04:23:30.453Z,46.42
2018-05-21T04:26:04.016Z,46.21
2018-05-21T04:28:37.827Z,45.76
2018-05-21T04:31:11.480Z,45.39
2018-05-21T04:33:45.550Z,45.90
2018-05-21T04:36:19.093Z,45.10
2018-05-21T04:38:52.680Z,45.44
2018-05-21T04:41:26.211Z,46.09
2018-05-21T04:43:59.874Z,45.17
2018-05-21T04:46:33.562Z,45.49
2018-05-21T04:49:07.352Z,45.05
2018-05-21T04:51:40.844Z,45.51
2018-05-21T04:54:14.457Z,44.94
2018-05-21T04:56:47.996Z,45.32
2018-05-21T04:59:21.658Z,44.46
2018-05-21T05:01:55.395Z,44.31
2018-05-21T05:04:29.211Z,45.41
2018-05-21T05:07:02.799Z,44.40
2018-05-21T05:09:36.377Z,43.90
2018-05-21T05:12:09.910Z,44.62
2018-05-21T05:14:43.419Z,44.10
2018-05-21T05:17:17.013Z,44.77
2018-05-21T05:19:50.525Z,45.26
2018-05-21T05:22:24.099Z,45.85
2018-05-21T05:24:57.756Z,44.76
2018-05-21T05:27:31.328Z,44.54
2018-05-21T05:30:04.864Z,44.52
2018-05-21T05:32:38.506Z,44.62
2018-05-21T05:35:12.064Z,45.17
2018-05-21T05:37:45.585Z,44.71
2018-05-21T05:40:19.143Z,44.60
2018-05-21T05:42:52.914Z,44.65
2018-05-21T05:45:26.540Z,44.98
2018-05-21T05:48:00.332Z,44.09
2018-05-21T05:50:34.111Z,45.96
2018-05-21T05:53:08.237Z,45.08
2018-05-21T05:55:42.647Z,44.59
2018-05-21T05:58:16.289Z,45.01
2018-05-21T06:00:49.871Z,43.00
2018-05-21T06:03:23.371Z,42.59
2018-05-21T06:05:57.052Z,43.92
2018-05-21T06:08:30.623Z,42.12
2018-05-21T06:11:04.410Z,42.47
2018-05-21T06:13:37.983Z,41.81
2018-05-21T06:16:11.732Z,42.25
2018-05-21T06:18:45.255Z,42.82
2018-05-21T06:21:19.023Z,42.33
2018-05-21T06:23:52.574Z,42.14
2018-05-21T06:26:26.044Z,41.32
2018-05-21T06:28:59.608Z,42.49
2018-05-21T06:31:33.137Z,39.99
2018-05-21T06:34:06.758Z,40.13
2018-05-21T06:36:40.285Z,39.70
2018-05-21T06:39:13.848Z,36.56
2018-05-21T06:41:47.699Z,39.07
2018-05-21T06:44:21.248Z,37.84
2018-05-21T06:46:54.963Z,34.48
2018-05-21T06:49:28.539Z,32.68
2018-05-21T06:52:02.007Z,33.03
2018-05-21T06:54:35.798Z,29.57
2018-05-21T06:57:09.287Z,29.42
2018-05-21T06:59:42.956Z,29.02
2018-05-21T07:02:16.398Z,27.19
2018-05-21T07:04:50.059Z,27.07
2018-05-21T07:07:23.663Z,26.50
2018-05-21T07:09:57.192Z,27.25
2018-05-21T07:12:30.823Z,26.47
2018-05-21T07:15:04.434Z,26.68
2018-05-21T07:17:38.091Z,27.37
2018-05-21T07:20:11.667Z,27.36
2018-05-21T07:22:45.340Z,27.89
2018-05-21T07:25:19.042Z,24.74
2018-05-21T07:27:52.597Z,26.56
2018-05-21T07:30:26.112Z,25.62
2018-05-21T07:32:59.882Z,26.13
2018-05-21T07:35:33.515Z,26.30
2018-05-21T07:38:07.080Z,26.45
2018-05-21T07:40:40.576Z,25.95
2018-05-21T07:43:14.198Z,26.15
2018-05-21T07:45:47.838Z,24.85
2018-05-21T07:48:21.410Z,25.89
2018-05-21T07:50:55.189Z,25.49
2018-05-21T07:53:28.730Z,21.95
2018-05-21T07:56:02.359Z,22.60
2018-05-21T07:58:35.947Z,23.85
2018-05-21T08:01:09.535Z,25.02
2018-05-21T08:03:43.172Z,23.25
2018-05-21T08:06:16.840Z,24.86
2018-05-21T08:08:50.428Z,24.24
2018-05-21T08:11:24.004Z,26.04
2018-05-21T08:13:57.608Z,28.61
2018-05-21T08:16:31.193Z,28.17
2018-05-21T08:19:04.875Z,28.54
2018-05-21T08:21:38.547Z,26.88
2018-05-21T08:24:12.143Z,28.13
2018-05-21T08:26:45.693Z,26.45
2018-05-21T08:29:19.481Z,25.94
2018-05-21T08:31:52.992Z,24.76
2018-05-21T08:34:26.728Z,26.20
2018-05-21T08:37:00.320Z,29.10
2018-05-21T08:39:34.092Z,30.50
2018-05-21T08:42:07.842Z,31.49
2018-05-21T08:44:41.388Z,31.29
2018-05-21T08:47:15.146Z,29.71
2018-05-21T08:49:48.837Z,28.01
2018-05-21T08:52:25.729Z,26.93
2018-05-21T08:54:59.448Z,25.35
2018-05-21T08:57:33.103Z,24.80
2018-05-21T09:00:06.651Z,26.98
2018-05-21T09:02:40.238Z,26.10
2018-05-21T09:05:13.771Z,25.55
2018-05-21T09:07:47.390Z,23.33
2018-05-21T09:10:20.937Z,22.87
2018-05-21T09:12:54.538Z,22.96
2018-05-21T09:15:28.096Z,22.26
2018-05-21T09:18:01.860Z,22.35
2018-05-21T09:20:35.395Z,22.39
2018-05-21T09:23:08.924Z,21.25
2018-05-21T09:25:42.691Z,21.12
2018-05-21T09:28:16.348Z,21.02
2018-05-21T09:30:49.976Z,20.24
2018-05-21T09:33:23.590Z,20.20
2018-05-21T09:35:57.384Z,20.31
2018-05-21T09:38:31.113Z,19.87
2018-05-21T09:41:04.717Z,19.04
2018-05-21T09:43:38.288Z,19.00
2018-05-21T09:46:11.999Z,18.93
2018-05-21T09:48:45.594Z,18.24
2018-05-21T09:51:19.124Z,18.72
2018-05-21T09:53:52.735Z,17.62
2018-05-21T09:56:26.445Z,18.66
2018-05-21T09:59:00.079Z,18.90
2018-05-21T10:01:33.899Z,18.37
2018-05-21T10:04:07.455Z,18.36
2018-05-21T10:06:41.085Z,17.77
2018-05-21T10:09:14.686Z,18.76
2018-05-21T10:11:48.479Z,17.99
2018-05-21T10:14:21.969Z,17.72
2018-05-21T10:16:55.700Z,17.95
2018-05-21T10:19:29.433Z,18.00
2018-05-21T10:22:03.236Z,16.40
2018-05-21T10:24:36.776Z,17.04
2018-05-21T10:27:10.642Z,17.32
2018-05-21T10:29:44.327Z,17.35
2018-05-21T10:32:18.174Z,17.57
2018-05-21T10:34:51.740Z,18.86
2018-05-21T10:37:25.446Z,16.27
2018-05-21T10:39:58.987Z,17.55
2018-05-21T10:42:32.751Z,14.97
2018-05-21T10:45:06.308Z,16.43
2018-05-21T10:47:39.826Z,15.30
2018-05-21T10:50:13.660Z,16.25
2018-05-21T10:52:47.311Z,16.89
2018-05-21T10:55:21.057Z,15.17
2018-05-21T10:57:54.924Z,15.84
2018-05-21T11:00:28.485Z,15.78
2018-05-21T11:03:02.192Z,17.54
2018-05-21T11:05:35.969Z,15.32
2018-05-21T11:08:09.739Z,14.57
2018-05-21T11:10:43.480Z,14.37
2018-05-21T11:13:16.969Z,14.31
2018-05-21T11:15:50.532Z,15.30
2018-05-21T11:18:24.332Z,14.04
2018-05-21T11:20:57.918Z,14.29
2018-05-21T11:23:31.447Z,13.33
2018-05-21T11:26:05.012Z,13.29
2018-05-21T11:28:38.734Z,14.42
2018-05-21T11:31:12.267Z,14.55
2018-05-21T11:33:45.864Z,15.77
2018-05-21T11:36:19.539Z,14.31
2018-05-21T11:38:53.063Z,16.07
2018-05-21T11:41:26.589Z,16.24
2018-05-21T11:44:00.088Z,15.84
2018-05-21T11:46:34.215Z,17.11
2018-05-21T11:49:07.789Z,18.64
2018-05-21T11:51:41.539Z,19.69
2018-05-21T11:54:15.253Z,21.43
2018-05-21T11:56:48.748Z,21.49
2018-05-21T11:59:22.375Z,22.20
2018-05-21T12:01:56.179Z,23.74
2018-05-21T12:04:29.965Z,21.54
2018-05-21T12:07:03.653Z,20.81
2018-05-21T12:09:37.292Z,22.19
2018-05-21T12:12:10.940Z,22.03
2018-05-21T12:14:44.584Z,20.62
2018-05-21T12:17:18.283Z,20.89
2018-05-21T12:19:51.931Z,21.50
2018-05-21T12:22:25.539Z,20.91
2018-05-21T12:24:59.082Z,21.69
2018-05-21T12:27:32.796Z,21.46
2018-05-21T12:30:06.650Z,22.76
2018-05-21T12:32:40.182Z,21.75
2018-05-21T12:35:13.859Z,22.34
2018-05-21T12:37:47.426Z,21.64
2018-05-21T12:40:20.954Z,21.71
2018-05-21T12:42:54.553Z,21.88
2018-05-21T12:45:28.156Z,22.78
2018-05-21T12:48:01.709Z,22.63
2018-05-21T12:50:35.268Z,20.93
2018-05-21T12:53:08.978Z,20.16
2018-05-21T12:55:42.724Z,20.11
2018-05-21T12:58:16.269Z,22.33
2018-05-21T13:00:50.312Z,20.97
2018-05-21T13:03:23.835Z,22.53
2018-05-21T13:05:57.424Z,21.43
2018-05-21T13:08:31.008Z,23.26
2018-05-21T13:11:05.038Z,22.24
2018-05-21T13:13:38.589Z,21.65
2018-05-21T13:16:12.160Z,23.12
2018-05-21T13:18:45.964Z,23.65
2018-05-21T13:21:19.491Z,24.51
2018-05-21T13:23:53.022Z,24.11
2018-05-21T13:26:26.606Z,23.16
2018-05-21T13:29:00.214Z,23.23
2018-05-21T13:31:33.789Z,22.83
2018-05-21T13:34:07.533Z,24.90
2018-05-21T13:36:41.223Z,22.51
2018-05-21T13:39:14.921Z,22.89
2018-05-21T13:41:48.590Z,23.13
2018-05-21T13:44:22.352Z,23.18
2018-05-21T13:46:56.044Z,23.46
2018-05-21T13:49:29.680Z,23.75
2018-05-21T13:52:03.466Z,24.21
2018-05-21T13:54:37.101Z,24.49
2018-05-21T13:57:10.923Z,24.44
2018-05-21T13:59:44.505Z,24.00
2018-05-21T14:02:18.396Z,24.14
2018-05-21T14:04:52.018Z,24.24
2018-05-21T14:07:25.776Z,24.07
2018-05-21T14:09:59.352Z,23.17
2018-05-21T14:12:33.145Z,23.43
2018-05-21T14:15:06.757Z,23.76
2018-05-21T14:17:40.482Z,23.73
2018-05-21T14:20:14.127Z,24.23
2018-05-21T14:22:47.892Z,25.21
2018-05-21T14:25:21.580Z,24.21
2018-05-21T14:27:55.334Z,23.13
2018-05-21T14:30:28.877Z,22.19
2018-05-21T14:33:02.520Z,21.21
2018-05-21T14:35:36.257Z,21.89
2018-05-21T14:38:09.804Z,22.18
2018-05-21T14:40:43.431Z,21.07
2018-05-21T14:43:17.036Z,22.42
2018-05-21T14:45:50.519Z,21.40
2018-05-21T14:48:24.333Z,22.10
2018-05-21T14:50:58.127Z,21.48
2018-05-21T14:53:31.898Z,20.90
2018-05-21T14:56:05.558Z,20.18
2018-05-21T14:58:39.216Z,21.08
2018-05-21T15:01:12.816Z,21.86
2018-05-21T15:03:46.396Z,22.10
2018-05-21T15:06:20.191Z,21.21
2018-05-21T15:08:53.816Z,22.78
2018-05-21T15:11:27.453Z,23.38
2018-05-21T15:14:01.044Z,24.33
2018-05-21T15:16:34.572Z,24.09
2018-05-21T15:19:08.137Z,24.12
2018-05-21T15:21:41.859Z,24.28
2018-05-21T15:24:15.459Z,24.46
2018-05-21T15:26:49.041Z,25.37
2018-05-21T15:29:22.667Z,26.18
2018-05-21T15:31:56.365Z,27.60
2018-05-21T15:34:29.984Z,26.24
2018-05-21T15:37:03.544Z,27.16
2018-05-21T15:39:37.127Z,27.58
2018-05-21T15:42:10.735Z,27.51
2018-05-21T15:44:44.627Z,27.92
2018-05-21T15:47:18.315Z,27.79
2018-05-21T15:49:51.981Z,28.22
2018-05-21T15:52:25.842Z,28.30
2018-05-21T15:54:59.407Z,28.19
2018-05-21T15:57:33.004Z,28.74
2018-05-21T16:00:06.712Z,28.08
2018-05-21T16:02:40.436Z,28.82
2018-05-21T16:05:14.292Z,28.81
2018-05-21T16:07:47.804Z,30.42
2018-05-21T16:10:21.407Z,29.51
2018-05-21T16:12:55.093Z,30.27
2018-05-21T16:15:28.661Z,29.16
2018-05-21T16:18:02.203Z,28.88
2018-05-21T16:20:35.835Z,29.14
2018-05-21T16:23:09.407Z,28.88
2018-05-21T16:25:43.219Z,29.29
2018-05-21T16:28:16.724Z,29.41
2018-05-21T16:30:50.292Z,28.99
2018-05-21T16:33:23.828Z,30.28
2018-05-21T16:35:57.563Z,29.77
2018-05-21T16:38:31.123Z,30.35
2018-05-21T16:41:04.875Z,30.14
2018-05-21T16:43:38.750Z,30.36
2018-05-21T16:46:12.320Z,30.53
2018-05-21T16:48:45.959Z,30.04
2018-05-21T16:51:19.489Z,30.42
2018-05-21T16:53:53.036Z,30.84
2018-05-21T16:56:26.574Z,30.64
2018-05-21T16:59:00.251Z,30.98
2018-05-21T17:01:33.856Z,31.33
2018-05-21T17:04:07.616Z,32.22
2018-05-21T17:06:41.272Z,31.52
2018-05-21T17:09:14.948Z,31.63
2018-05-21T17:11:48.760Z,31.48
2018-05-21T17:14:22.376Z,32.67
2018-05-21T17:16:56.090Z,32.37
2018-05-21T17:19:29.743Z,32.18
2018-05-21T17:22:03.548Z,32.75
2018-05-21T17:24:37.192Z,31.32
2018-05-21T17:27:10.820Z,31.88
2018-05-21T17:29:44.592Z,31.10
2018-05-21T17:32:18.405Z,32.19
2018-05-21T17:34:52.148Z,30.97
2018-05-21T17:37:25.891Z,30.92
2018-05-21T17:39:59.663Z,31.05
2018-05-21T17:42:33.309Z,31.65
2018-05-21T17:45:07.144Z,31.45
2018-05-21T17:47:40.811Z,32.30
2018-05-21T17:50:14.539Z,31.73
2018-05-21T17:52:48.135Z,31.76
2018-05-21T17:55:21.882Z,32.98
2018-05-21T17:57:55.583Z,32.30
2018-05-21T18:00:29.324Z,33.16
2018-05-21T18:03:02.886Z,32.37
2018-05-21T18:05:36.464Z,32.55
2018-05-21T18:08:10.215Z,33.32
2018-05-21T18:10:43.808Z,32.80
2018-05-21T18:13:17.636Z,32.81
2018-05-21T18:15:51.447Z,32.99
2018-05-21T18:18:24.964Z,33.37
2018-05-21T18:20:58.631Z,33.33
2018-05-21T18:23:32.326Z,33.71
2018-05-21T18:26:05.922Z,33.97
2018-05-21T18:28:39.457Z,34.15
2018-05-21T18:31:13.212Z,34.21
2018-05-21T18:33:46.796Z,34.71
2018-05-21T18:36:20.323Z,34.71
2018-05-21T18:38:53.980Z,35.32
2018-05-21T18:41:27.772Z,36.85
2018-05-21T18:44:01.344Z,36.64
2018-05-21T18:46:34.904Z,36.39
2018-05-21T18:49:08.695Z,38.09
2018-05-21T18:51:42.367Z,38.55
2018-05-21T18:54:15.908Z,37.54
2018-05-21T18:56:51.558Z,38.49
2018-05-21T18:59:25.246Z,41.49
2018-05-21T19:01:58.879Z,40.86
2018-05-21T19:04:32.704Z,40.03
2018-05-21T19:07:06.356Z,41.07
2018-05-21T19:09:39.922Z,40.88
2018-05-21T19:12:13.443Z,42.06
2018-05-21T19:14:47.078Z,41.52
2018-05-21T19:17:20.763Z,40.51
2018-05-21T19:19:54.588Z,40.34
2018-05-21T19:22:28.359Z,41.08
2018-05-21T19:25:02.120Z,40.90
2018-05-21T19:27:35.771Z,40.85
2018-05-21T19:30:09.306Z,41.34
2018-05-21T19:32:43.195Z,40.55
2018-05-21T19:35:16.873Z,41.03
2018-05-21T19:37:50.510Z,41.25
2018-05-21T19:40:24.202Z,41.64
2018-05-21T19:42:57.908Z,41.99
2018-05-21T19:45:31.519Z,41.17
2018-05-21T19:48:05.300Z,40.95
2018-05-21T19:50:38.906Z,42.18
2018-05-21T19:53:12.472Z,41.79
2018-05-21T19:55:46.220Z,41.55
2018-05-21T19:58:19.940Z,41.68
2018-05-21T20:00:53.849Z,41.44
2018-05-21T20:03:27.555Z,41.56
2018-05-21T20:06:01.260Z,42.73
2018-05-21T20:08:35.032Z,41.64
2018-05-21T20:11:09.028Z,43.74
2018-05-21T20:13:42.546Z,42.29
2018-05-21T20:16:16.308Z,41.73
2018-05-21T20:18:49.833Z,42.07
2018-05-21T20:21:23.392Z,43.04
2018-05-21T20:23:57.035Z,42.78
2018-05-21T20:26:30.571Z,43.58
2018-05-21T20:29:04.246Z,42.25
2018-05-21T20:31:37.751Z,43.14
2018-05-21T20:34:11.272Z,42.22
2018-05-21T20:36:44.926Z,42.10
2018-05-21T20:39:18.690Z,42.17
2018-05-21T20:41:52.202Z,42.96
2018-05-21T20:44:25.867Z,42.94
2018-05-21T20:46:59.383Z,42.39
2018-05-21T20:49:33.090Z,42.45
2018-05-21T20:52:06.599Z,42.74
2018-05-21T20:54:40.375Z,42.48
2018-05-21T20:57:14.200Z,43.66
2018-05-21T20:59:47.815Z,44.02
2018-05-21T21:02:21.386Z,43.29
2018-05-21T21:04:54.875Z,42.98
2018-05-21T21:07:28.374Z,43.04
2018-05-21T21:10:01.887Z,43.18
2018-05-21T21:12:35.643Z,43.69
2018-05-21T21:15:09.308Z,43.31
2018-05-21T21:17:42.935Z,43.29
2018-05-21T21:20:16.472Z,43.84
2018-05-21T21:22:50.088Z,44.42
2018-05-21T21:25:23.661Z,43.44
2018-05-21T21:27:57.464Z,43.50
2018-05-21T21:30:31.208Z,43.36
2018-05-21T21:33:05.247Z,43.39
2018-05-21T21:35:38.800Z,43.42
2018-05-21T21:38:12.362Z,43.97
2018-05-21T21:40:45.872Z,43.58
2018-05-21T21:43:19.655Z,44.13
2018-05-21T21:45:53.271Z,43.71
2018-05-21T21:48:26.839Z,43.57
2018-05-21T21:51:00.340Z,43.85
2018-05-21T21:53:34.108Z,43.43
2018-05-21T21:56:07.603Z,43.44
2018-05-21T21:58:41.574Z,43.66
2018-05-21T22:01:15.172Z,43.98
2018-05-21T22:03:49.000Z,43.99
2018-05-21T22:06:22.544Z,44.05
2018-05-21T22:08:56.267Z,44.24
2018-05-21T22:11:29.794Z,44.94
2018-05-21T22:14:03.336Z,44.24
2018-05-21T22:16:36.894Z,44.41
2018-05-21T22:19:10.558Z,43.81
2018-05-21T22:21:44.044Z,44.37
2018-05-21T22:24:17.820Z,44.07
2018-05-21T22:26:51.550Z,44.13
2018-05-21T22:29:25.116Z,43.81
2018-05-21T22:31:58.760Z,43.82
2018-05-21T22:34:32.358Z,45.25
2018-05-21T22:37:05.928Z,44.40
2018-05-21T22:39:39.732Z,44.12
2018-05-21T22:42:13.497Z,44.26
2018-05-21T22:44:47.276Z,45.13
2018-05-21T22:47:20.965Z,44.83
2018-05-21T22:49:54.719Z,45.04
2018-05-21T22:52:28.224Z,45.16
2018-05-21T22:55:01.874Z,44.92
2018-05-21T22:57:35.439Z,44.75
2018-05-21T23:02:49.039Z,44.77
2018-05-21T23:05:22.727Z,44.67
2018-05-21T23:07:56.388Z,45.53
2018-05-21T23:10:30.096Z,45.82
2018-05-21T23:13:03.756Z,45.61
2018-05-21T23:15:37.282Z,45.47
2018-05-21T23:18:11.046Z,45.70
2018-05-21T23:20:44.776Z,46.13
2018-05-21T23:23:18.375Z,45.72
2018-05-21T23:25:52.148Z,46.39
2018-05-21T23:28:25.805Z,46.48
2018-05-21T23:30:59.526Z,45.97
2018-05-21T23:33:33.045Z,46.98
2018-05-21T23:36:06.626Z,46.59
2018-05-21T23:38:40.227Z,48.66
2018-05-21T23:41:13.956Z,46.96
2018-05-21T23:43:47.575Z,48.00
2018-05-21T23:46:21.287Z,49.72
2018-05-21T23:48:55.093Z,47.43
2018-05-21T23:51:28.866Z,47.53
2018-05-21T23:54:02.743Z,47.20
2018-05-21T23:56:36.576Z,47.45
2018-05-21T23:59:10.272Z,47.57
